UCA4130 KMIA-KTPA
Flight info
| Callsign | UCA4130 |
|---|---|
| Flight time | 0h 53m |
| Altitude | 24000 |
| Route | BNGOS4 BNGOS COREA BLFRG3 |
| Aircraft | DH8D/M-SDE2E3FGRY/H |
Departure
| Time | 2026-04-30 20:32 |
|---|---|
| Airport | Miami International Airport (KMIA) |
Arrival
| Time | 2026-04-30 21:25 |
|---|---|
| Airport | Tampa International Airport (KTPA) |
| Time | Latitude | Longitude | Altitude | Speed | Heading |
|---|---|---|---|---|---|
| 2026-04-30 19:45 | 25.79024 | -80.27610 | 13 ft | 0 kts | 268° |
| 2026-04-30 20:17 | 25.79024 | -80.27605 | 13 ft | 2 kts | 268° |
| 2026-04-30 20:18 | 25.79024 | -80.27589 | 13 ft | 2 kts | 268° |
| 2026-04-30 20:18 | 25.79025 | -80.27573 | 13 ft | 2 kts | 268° |
| 2026-04-30 20:18 | 25.79025 | -80.27556 | 13 ft | 2 kts | 268° |
| 2026-04-30 20:18 | 25.79028 | -80.27541 | 13 ft | 2 kts | 230° |
| 2026-04-30 20:19 | 25.79040 | -80.27533 | 13 ft | 2 kts | 178° |
| 2026-04-30 20:19 | 25.79051 | -80.27535 | 13 ft | 0 kts | 176° |
| 2026-04-30 20:19 | 25.79052 | -80.27535 | 13 ft | 0 kts | 176° |
| 2026-04-30 20:22 | 25.79051 | -80.27535 | 13 ft | 2 kts | 176° |
| 2026-04-30 20:22 | 25.79038 | -80.27534 | 13 ft | 0 kts | 178° |
| 2026-04-30 20:23 | 25.79037 | -80.27534 | 13 ft | 2 kts | 178° |
| 2026-04-30 20:24 | 25.79022 | -80.27533 | 13 ft | 2 kts | 177° |
| 2026-04-30 20:24 | 25.78975 | -80.27531 | 13 ft | 13 kts | 177° |
| 2026-04-30 20:24 | 25.78903 | -80.27567 | 13 ft | 11 kts | 246° |
| 2026-04-30 20:24 | 25.78879 | -80.27685 | 13 ft | 17 kts | 268° |
| 2026-04-30 20:25 | 25.78907 | -80.28015 | 13 ft | 24 kts | 300° |
| 2026-04-30 20:25 | 25.78991 | -80.28179 | 13 ft | 23 kts | 300° |
| 2026-04-30 20:26 | 25.79154 | -80.28468 | 13 ft | 21 kts | 305° |
| 2026-04-30 20:26 | 25.79308 | -80.28770 | 15 ft | 20 kts | 297° |
| 2026-04-30 20:26 | 25.79385 | -80.28919 | 15 ft | 23 kts | 299° |
| 2026-04-30 20:27 | 25.79545 | -80.29230 | 13 ft | 24 kts | 300° |
| 2026-04-30 20:27 | 25.79697 | -80.29527 | 13 ft | 21 kts | 299° |
| 2026-04-30 20:28 | 25.79830 | -80.29787 | 13 ft | 17 kts | 299° |
| 2026-04-30 20:28 | 25.79918 | -80.29958 | 13 ft | 0 kts | 299° |
| 2026-04-30 20:30 | 25.79959 | -80.30039 | 13 ft | 16 kts | 299° |
| 2026-04-30 20:31 | 25.80088 | -80.29698 | 13 ft | 91 kts | 88° |
| 2026-04-30 20:32 | 25.80653 | -80.26329 | 794 ft | 180 kts | 59° |
| 2026-04-30 20:32 | 25.82238 | -80.24085 | 1979 ft | 185 kts | 53° |
| 2026-04-30 20:33 | 25.83039 | -80.22958 | 2487 ft | 190 kts | 53° |
| 2026-04-30 20:33 | 25.84744 | -80.20436 | 3281 ft | 210 kts | 53° |
| 2026-04-30 20:33 | 25.85590 | -80.19141 | 3849 ft | 209 kts | 53° |
| 2026-04-30 20:34 | 25.87250 | -80.16522 | 4854 ft | 208 kts | 49° |
| 2026-04-30 20:34 | 25.89738 | -80.15521 | 5688 ft | 196 kts | 339° |
| 2026-04-30 20:35 | 25.90819 | -80.16357 | 6111 ft | 192 kts | 308° |
| 2026-04-30 20:35 | 25.91575 | -80.17566 | 6566 ft | 192 kts | 304° |
| 2026-04-30 20:35 | 25.93282 | -80.20093 | 6935 ft | 222 kts | 306° |
| 2026-04-30 20:36 | 25.94243 | -80.21543 | 6967 ft | 233 kts | 306° |
| 2026-04-30 20:36 | 25.95183 | -80.22974 | 6972 ft | 234 kts | 306° |
| 2026-04-30 20:36 | 25.97119 | -80.25909 | 6970 ft | 235 kts | 306° |
| 2026-04-30 20:37 | 25.98099 | -80.27393 | 6976 ft | 238 kts | 307° |
| 2026-04-30 20:37 | 25.99078 | -80.28874 | 6977 ft | 241 kts | 306° |
| 2026-04-30 20:37 | 26.00082 | -80.30394 | 6976 ft | 243 kts | 306° |
| 2026-04-30 20:37 | 26.01085 | -80.31912 | 6975 ft | 245 kts | 306° |
| 2026-04-30 20:38 | 26.02072 | -80.33408 | 7361 ft | 228 kts | 307° |
| 2026-04-30 20:38 | 26.02974 | -80.34770 | 8089 ft | 214 kts | 307° |
| 2026-04-30 20:38 | 26.03850 | -80.36089 | 8583 ft | 212 kts | 307° |
| 2026-04-30 20:39 | 26.05595 | -80.38721 | 9405 ft | 212 kts | 307° |
| 2026-04-30 20:39 | 26.06466 | -80.40037 | 9790 ft | 213 kts | 306° |
| 2026-04-30 20:39 | 26.07353 | -80.41378 | 10162 ft | 213 kts | 306° |
| 2026-04-30 20:40 | 26.09101 | -80.44027 | 10925 ft | 214 kts | 306° |
| 2026-04-30 20:40 | 26.09995 | -80.45381 | 11265 ft | 216 kts | 306° |
| 2026-04-30 20:40 | 26.10876 | -80.46719 | 11641 ft | 215 kts | 306° |
| 2026-04-30 20:41 | 26.12636 | -80.49389 | 12384 ft | 213 kts | 306° |
| 2026-04-30 20:41 | 26.13519 | -80.50730 | 12709 ft | 215 kts | 306° |
| 2026-04-30 20:41 | 26.14405 | -80.52077 | 13073 ft | 213 kts | 306° |
| 2026-04-30 20:41 | 26.15286 | -80.53416 | 13363 ft | 217 kts | 306° |
| 2026-04-30 20:42 | 26.16165 | -80.54752 | 13703 ft | 216 kts | 306° |
| 2026-04-30 20:42 | 26.17066 | -80.56123 | 13974 ft | 217 kts | 306° |
| 2026-04-30 20:42 | 26.18848 | -80.58836 | 14568 ft | 217 kts | 306° |
| 2026-04-30 20:43 | 26.19737 | -80.60188 | 14803 ft | 220 kts | 306° |
| 2026-04-30 20:43 | 26.20635 | -80.61556 | 15112 ft | 218 kts | 307° |
| 2026-04-30 20:43 | 26.21514 | -80.62895 | 15496 ft | 212 kts | 306° |
| 2026-04-30 20:44 | 26.23225 | -80.65501 | 16183 ft | 203 kts | 307° |
| 2026-04-30 20:44 | 26.24048 | -80.66754 | 16474 ft | 201 kts | 307° |
| 2026-04-30 20:44 | 26.25678 | -80.69236 | 16999 ft | 198 kts | 306° |
| 2026-04-30 20:45 | 26.27290 | -80.71694 | 17432 ft | 197 kts | 306° |
| 2026-04-30 20:45 | 26.28102 | -80.72931 | 17641 ft | 196 kts | 306° |
| 2026-04-30 20:45 | 26.28909 | -80.74162 | 17823 ft | 196 kts | 307° |
| 2026-04-30 20:46 | 26.31304 | -80.77818 | 18394 ft | 194 kts | 307° |
| 2026-04-30 20:46 | 26.32102 | -80.79037 | 18558 ft | 195 kts | 307° |
| 2026-04-30 20:47 | 26.33700 | -80.81479 | 18841 ft | 195 kts | 306° |
| 2026-04-30 20:47 | 26.34495 | -80.82695 | 18985 ft | 195 kts | 306° |
| 2026-04-30 20:48 | 26.36102 | -80.85154 | 19258 ft | 195 kts | 306° |
| 2026-04-30 20:48 | 26.36893 | -80.86365 | 19385 ft | 196 kts | 306° |
| 2026-04-30 20:48 | 26.37704 | -80.87607 | 19515 ft | 196 kts | 306° |
| 2026-04-30 20:48 | 26.38503 | -80.88830 | 19641 ft | 196 kts | 306° |
| 2026-04-30 20:49 | 26.39306 | -80.90062 | 19770 ft | 195 kts | 307° |
| 2026-04-30 20:49 | 26.40107 | -80.91290 | 19833 ft | 198 kts | 306° |
| 2026-04-30 20:49 | 26.40927 | -80.92545 | 19858 ft | 202 kts | 306° |
| 2026-04-30 20:50 | 26.42622 | -80.95145 | 19876 ft | 214 kts | 306° |
| 2026-04-30 20:50 | 26.43518 | -80.96523 | 19882 ft | 221 kts | 306° |
| 2026-04-30 20:50 | 26.44428 | -80.97920 | 19878 ft | 228 kts | 306° |
| 2026-04-30 20:50 | 26.45378 | -80.99380 | 19872 ft | 234 kts | 306° |
| 2026-04-30 20:51 | 26.46356 | -81.00884 | 19873 ft | 240 kts | 306° |
| 2026-04-30 20:51 | 26.48367 | -81.03976 | 19872 ft | 252 kts | 306° |
| 2026-04-30 20:51 | 26.49401 | -81.05566 | 19875 ft | 258 kts | 306° |
| 2026-04-30 20:52 | 26.50475 | -81.07220 | 19872 ft | 263 kts | 306° |
| 2026-04-30 20:52 | 26.51627 | -81.08830 | 19869 ft | 268 kts | 313° |
| 2026-04-30 20:52 | 26.54363 | -81.11739 | 19875 ft | 277 kts | 316° |
| 2026-04-30 20:53 | 26.55768 | -81.13207 | 19881 ft | 279 kts | 316° |
| 2026-04-30 20:53 | 26.57199 | -81.14706 | 19877 ft | 282 kts | 315° |
| 2026-04-30 20:53 | 26.58642 | -81.16221 | 19867 ft | 285 kts | 316° |
| 2026-04-30 20:54 | 26.61546 | -81.19277 | 19880 ft | 288 kts | 315° |
| 2026-04-30 20:54 | 26.62999 | -81.20809 | 19872 ft | 290 kts | 315° |
| 2026-04-30 20:54 | 26.64379 | -81.22467 | 19877 ft | 291 kts | 309° |
| 2026-04-30 20:55 | 26.66922 | -81.26002 | 19874 ft | 292 kts | 309° |
| 2026-04-30 20:55 | 26.68205 | -81.27795 | 19872 ft | 293 kts | 308° |
| 2026-04-30 20:55 | 26.69479 | -81.29571 | 19872 ft | 294 kts | 309° |
| 2026-04-30 20:56 | 26.72039 | -81.33137 | 19879 ft | 295 kts | 308° |
| 2026-04-30 20:56 | 26.73339 | -81.34948 | 19875 ft | 296 kts | 309° |
| 2026-04-30 20:56 | 26.75925 | -81.38549 | 19870 ft | 297 kts | 308° |
| 2026-04-30 20:57 | 26.77204 | -81.40330 | 19867 ft | 297 kts | 308° |
| 2026-04-30 20:57 | 26.78511 | -81.42151 | 19880 ft | 297 kts | 308° |
| 2026-04-30 20:57 | 26.79800 | -81.43946 | 19880 ft | 297 kts | 308° |
| 2026-04-30 20:58 | 26.82390 | -81.47559 | 19886 ft | 298 kts | 308° |
| 2026-04-30 20:58 | 26.83693 | -81.49375 | 19887 ft | 298 kts | 308° |
| 2026-04-30 20:58 | 26.84981 | -81.51173 | 19884 ft | 297 kts | 309° |
| 2026-04-30 20:58 | 26.86271 | -81.52975 | 19886 ft | 296 kts | 308° |
| 2026-04-30 20:59 | 26.88836 | -81.56557 | 19895 ft | 294 kts | 308° |
| 2026-04-30 20:59 | 26.90109 | -81.58337 | 19888 ft | 294 kts | 308° |
| 2026-04-30 21:00 | 26.92665 | -81.61910 | 19895 ft | 293 kts | 309° |
| 2026-04-30 21:00 | 26.95208 | -81.65469 | 19898 ft | 293 kts | 308° |
| 2026-04-30 21:01 | 26.97734 | -81.69008 | 19906 ft | 293 kts | 308° |
| 2026-04-30 21:01 | 26.99019 | -81.70808 | 19906 ft | 292 kts | 308° |
| 2026-04-30 21:01 | 27.01556 | -81.74365 | 19908 ft | 291 kts | 308° |
| 2026-04-30 21:02 | 27.02812 | -81.76127 | 19904 ft | 291 kts | 308° |
| 2026-04-30 21:02 | 27.04070 | -81.77894 | 19904 ft | 291 kts | 307° |
| 2026-04-30 21:02 | 27.05342 | -81.79679 | 19907 ft | 291 kts | 308° |
| 2026-04-30 21:02 | 27.06607 | -81.81457 | 19909 ft | 291 kts | 308° |
| 2026-04-30 21:03 | 27.07870 | -81.83224 | 19905 ft | 291 kts | 309° |
| 2026-04-30 21:03 | 27.09354 | -81.84801 | 19908 ft | 293 kts | 319° |
| 2026-04-30 21:03 | 27.10997 | -81.86186 | 19902 ft | 293 kts | 320° |
| 2026-04-30 21:03 | 27.12629 | -81.87549 | 19903 ft | 294 kts | 320° |
| 2026-04-30 21:04 | 27.14270 | -81.88923 | 19904 ft | 294 kts | 320° |
| 2026-04-30 21:04 | 27.15907 | -81.90295 | 19909 ft | 294 kts | 320° |
| 2026-04-30 21:04 | 27.19177 | -81.93048 | 19906 ft | 294 kts | 320° |
| 2026-04-30 21:05 | 27.20825 | -81.94437 | 19903 ft | 294 kts | 320° |
| 2026-04-30 21:05 | 27.22455 | -81.95815 | 19903 ft | 294 kts | 320° |
| 2026-04-30 21:05 | 27.24084 | -81.97192 | 19905 ft | 294 kts | 320° |
| 2026-04-30 21:05 | 27.25741 | -81.98595 | 19906 ft | 294 kts | 320° |
| 2026-04-30 21:06 | 27.27364 | -81.99970 | 19914 ft | 294 kts | 320° |
| 2026-04-30 21:06 | 27.28989 | -82.01347 | 19909 ft | 294 kts | 320° |
| 2026-04-30 21:06 | 27.30643 | -82.02750 | 19903 ft | 294 kts | 320° |
| 2026-04-30 21:06 | 27.32262 | -82.04123 | 19902 ft | 294 kts | 320° |
| 2026-04-30 21:07 | 27.33897 | -82.05512 | 19904 ft | 294 kts | 320° |
| 2026-04-30 21:07 | 27.35531 | -82.06898 | 19901 ft | 294 kts | 320° |
| 2026-04-30 21:07 | 27.37165 | -82.08289 | 19901 ft | 293 kts | 320° |
| 2026-04-30 21:07 | 27.38754 | -82.09720 | 19894 ft | 293 kts | 318° |
| 2026-04-30 21:08 | 27.40319 | -82.11188 | 19898 ft | 293 kts | 317° |
| 2026-04-30 21:08 | 27.41892 | -82.12663 | 19899 ft | 293 kts | 317° |
| 2026-04-30 21:08 | 27.43465 | -82.14136 | 19766 ft | 298 kts | 317° |
| 2026-04-30 21:08 | 27.45037 | -82.15640 | 19431 ft | 295 kts | 316° |
| 2026-04-30 21:09 | 27.46502 | -82.17236 | 19076 ft | 291 kts | 313° |
| 2026-04-30 21:09 | 27.47921 | -82.18822 | 18727 ft | 287 kts | 314° |
| 2026-04-30 21:09 | 27.49325 | -82.20384 | 18374 ft | 284 kts | 313° |
| 2026-04-30 21:09 | 27.50723 | -82.21935 | 18019 ft | 281 kts | 313° |
| 2026-04-30 21:10 | 27.52120 | -82.23479 | 17661 ft | 278 kts | 313° |
| 2026-04-30 21:10 | 27.53479 | -82.24978 | 17312 ft | 275 kts | 313° |
| 2026-04-30 21:10 | 27.54846 | -82.26483 | 16962 ft | 273 kts | 313° |
| 2026-04-30 21:10 | 27.56190 | -82.27962 | 16595 ft | 271 kts | 314° |
| 2026-04-30 21:11 | 27.57544 | -82.29451 | 16237 ft | 270 kts | 313° |
| 2026-04-30 21:11 | 27.58878 | -82.30916 | 15877 ft | 269 kts | 314° |
| 2026-04-30 21:11 | 27.60215 | -82.32385 | 15508 ft | 268 kts | 314° |
| 2026-04-30 21:11 | 27.61554 | -82.33855 | 15153 ft | 267 kts | 313° |
| 2026-04-30 21:12 | 27.62875 | -82.35306 | 14794 ft | 266 kts | 314° |
| 2026-04-30 21:12 | 27.64195 | -82.36757 | 14432 ft | 266 kts | 314° |
| 2026-04-30 21:12 | 27.65521 | -82.38213 | 14063 ft | 265 kts | 313° |
| 2026-04-30 21:12 | 27.66843 | -82.39665 | 13707 ft | 265 kts | 313° |
| 2026-04-30 21:13 | 27.68161 | -82.41100 | 13341 ft | 266 kts | 315° |
| 2026-04-30 21:13 | 27.69795 | -82.42124 | 12944 ft | 274 kts | 343° |
| 2026-04-30 21:13 | 27.71722 | -82.42248 | 12601 ft | 279 kts | 355° |
| 2026-04-30 21:13 | 27.73668 | -82.42195 | 12238 ft | 279 kts | 356° |
| 2026-04-30 21:14 | 27.75591 | -82.42136 | 11880 ft | 279 kts | 356° |
| 2026-04-30 21:14 | 27.77536 | -82.42076 | 11521 ft | 279 kts | 356° |
| 2026-04-30 21:14 | 27.79495 | -82.42020 | 11155 ft | 279 kts | 356° |
| 2026-04-30 21:14 | 27.81440 | -82.41966 | 10795 ft | 278 kts | 356° |
| 2026-04-30 21:15 | 27.83365 | -82.41914 | 10437 ft | 278 kts | 356° |
| 2026-04-30 21:15 | 27.85311 | -82.41863 | 10076 ft | 277 kts | 356° |
| 2026-04-30 21:15 | 27.87257 | -82.41814 | 9716 ft | 277 kts | 356° |
| 2026-04-30 21:15 | 27.89184 | -82.41764 | 9357 ft | 275 kts | 356° |
| 2026-04-30 21:16 | 27.91083 | -82.41717 | 9001 ft | 274 kts | 357° |
| 2026-04-30 21:16 | 27.93012 | -82.41670 | 8642 ft | 274 kts | 357° |
| 2026-04-30 21:16 | 27.94939 | -82.41623 | 8282 ft | 273 kts | 357° |
| 2026-04-30 21:16 | 27.96861 | -82.41576 | 7921 ft | 273 kts | 358° |
| 2026-04-30 21:17 | 27.98743 | -82.41531 | 7556 ft | 265 kts | 358° |
| 2026-04-30 21:17 | 28.00568 | -82.41489 | 7187 ft | 256 kts | 358° |
| 2026-04-30 21:17 | 28.02325 | -82.41447 | 6818 ft | 251 kts | 359° |
| 2026-04-30 21:17 | 28.04074 | -82.41406 | 6457 ft | 249 kts | 359° |
| 2026-04-30 21:18 | 28.05801 | -82.41364 | 6097 ft | 247 kts | 359° |
| 2026-04-30 21:18 | 28.07522 | -82.41323 | 5740 ft | 246 kts | 359° |
| 2026-04-30 21:18 | 28.09243 | -82.41281 | 5378 ft | 245 kts | 359° |
| 2026-04-30 21:18 | 28.10944 | -82.41240 | 5021 ft | 243 kts | 359° |
| 2026-04-30 21:19 | 28.12615 | -82.41200 | 4668 ft | 242 kts | 359° |
| 2026-04-30 21:19 | 28.14315 | -82.41128 | 4310 ft | 242 kts | 1° |
| 2026-04-30 21:19 | 28.15974 | -82.41023 | 4065 ft | 236 kts | 0° |
| 2026-04-30 21:19 | 28.17603 | -82.41022 | 3836 ft | 227 kts | 348° |
| 2026-04-30 21:20 | 28.18981 | -82.41771 | 3590 ft | 222 kts | 316° |
| 2026-04-30 21:20 | 28.19800 | -82.43244 | 3358 ft | 226 kts | 287° |
| 2026-04-30 21:20 | 28.19851 | -82.45029 | 3128 ft | 231 kts | 258° |
| 2026-04-30 21:20 | 28.19156 | -82.46647 | 3019 ft | 232 kts | 239° |
| 2026-04-30 21:21 | 28.18266 | -82.48175 | 2968 ft | 230 kts | 239° |
| 2026-04-30 21:21 | 28.17389 | -82.49688 | 2952 ft | 226 kts | 239° |
| 2026-04-30 21:21 | 28.15096 | -82.51943 | 2939 ft | 220 kts | 205° |
| 2026-04-30 21:22 | 28.13588 | -82.52268 | 2864 ft | 223 kts | 185° |
| 2026-04-30 21:22 | 28.09101 | -82.52452 | 1983 ft | 196 kts | 185° |
| 2026-04-30 21:23 | 28.07802 | -82.52497 | 1727 ft | 178 kts | 186° |
| 2026-04-30 21:23 | 28.06610 | -82.52541 | 1502 ft | 161 kts | 186° |
| 2026-04-30 21:23 | 28.04473 | -82.52628 | 1107 ft | 150 kts | 187° |
| 2026-04-30 21:24 | 28.03428 | -82.52661 | 945 ft | 148 kts | 186° |
| 2026-04-30 21:24 | 28.02414 | -82.52665 | 751 ft | 142 kts | 186° |
| 2026-04-30 21:24 | 28.01425 | -82.52711 | 573 ft | 139 kts | 187° |
| 2026-04-30 21:24 | 28.00473 | -82.52755 | 382 ft | 136 kts | 186° |
| 2026-04-30 21:25 | 27.98602 | -82.52823 | 41 ft | 132 kts | 186° |
| 2026-04-30 21:25 | 27.97782 | -82.52854 | 26 ft | 93 kts | 182° |
| 2026-04-30 21:25 | 27.97277 | -82.52876 | 25 ft | 38 kts | 191° |
| 2026-04-30 21:26 | 27.97211 | -82.52992 | 23 ft | 5 kts | 333° |
| 2026-04-30 21:26 | 27.97253 | -82.52994 | 23 ft | 7 kts | 1° |
| 2026-04-30 21:27 | 27.97349 | -82.52994 | 24 ft | 5 kts | 340° |
| 2026-04-30 21:27 | 27.97368 | -82.53022 | 24 ft | 4 kts | 289° |
| 2026-04-30 21:27 | 27.97376 | -82.53049 | 23 ft | 2 kts | 288° |
| 2026-04-30 21:28 | 27.97381 | -82.53181 | 23 ft | 12 kts | 272° |
| 2026-04-30 21:28 | 27.97383 | -82.53263 | 23 ft | 8 kts | 271° |
| 2026-04-30 21:28 | 27.97418 | -82.53362 | 23 ft | 8 kts | 346° |
| 2026-04-30 21:29 | 27.97478 | -82.53365 | 23 ft | 8 kts | 4° |
| 2026-04-30 21:29 | 27.97550 | -82.53294 | 23 ft | 2 kts | 91° |
| 2026-04-30 21:30 | 27.97550 | -82.53291 | 23 ft | 0 kts | 91° |